sensor_id;sensor_type;location;lat;lon;timestamp;P1;durP1;ratioP1;P2;durP2;ratioP2
76155;SDS011;64906;51.290;7.348;2023-01-28T00:00:05;121.22;;;56.72;;
76155;SDS011;64906;51.290;7.348;2023-01-28T00:02:36;116.43;;;55.75;;
76155;SDS011;64906;51.290;7.348;2023-01-28T00:05:02;113.82;;;55.75;;
76155;SDS011;64906;51.290;7.348;2023-01-28T00:07:29;109.95;;;54.45;;
76155;SDS011;64906;51.290;7.348;2023-01-28T00:09:54;109.05;;;53.30;;
76155;SDS011;64906;51.290;7.348;2023-01-28T00:12:20;118.70;;;56.25;;
76155;SDS011;64906;51.290;7.348;2023-01-28T00:14:46;112.53;;;54.03;;
76155;SDS011;64906;51.290;7.348;2023-01-28T00:17:12;112.82;;;53.40;;
76155;SDS011;64906;51.290;7.348;2023-01-28T00:19:39;113.85;;;55.00;;
76155;SDS011;64906;51.290;7.348;2023-01-28T00:22:05;109.03;;;52.40;;
76155;SDS011;64906;51.290;7.348;2023-01-28T00:24:31;113.22;;;52.85;;
76155;SDS011;64906;51.290;7.348;2023-01-28T00:26:57;105.00;;;52.72;;
76155;SDS011;64906;51.290;7.348;2023-01-28T00:29:23;108.07;;;53.40;;
76155;SDS011;64906;51.290;7.348;2023-01-28T00:31:49;105.45;;;52.80;;
76155;SDS011;64906;51.290;7.348;2023-01-28T00:34:15;108.25;;;53.33;;
76155;SDS011;64906;51.290;7.348;2023-01-28T00:36:41;103.43;;;51.83;;
76155;SDS011;64906;51.290;7.348;2023-01-28T00:39:09;110.38;;;53.63;;
76155;SDS011;64906;51.290;7.348;2023-01-28T00:41:38;108.72;;;52.53;;
76155;SDS011;64906;51.290;7.348;2023-01-28T00:44:03;111.65;;;53.42;;
76155;SDS011;64906;51.290;7.348;2023-01-28T00:46:30;99.50;;;50.47;;
76155;SDS011;64906;51.290;7.348;2023-01-28T00:48:56;99.15;;;51.50;;
76155;SDS011;64906;51.290;7.348;2023-01-28T00:51:22;96.53;;;49.78;;
76155;SDS011;64906;51.290;7.348;2023-01-28T00:53:48;99.22;;;49.88;;
76155;SDS011;64906;51.290;7.348;2023-01-28T00:56:15;90.32;;;47.20;;
76155;SDS011;64906;51.290;7.348;2023-01-28T00:58:42;106.50;;;50.22;;
76155;SDS011;64906;51.290;7.348;2023-01-28T01:01:09;97.90;;;52.50;;
76155;SDS011;64906;51.290;7.348;2023-01-28T01:03:36;101.47;;;49.40;;
76155;SDS011;64906;51.290;7.348;2023-01-28T01:06:02;99.35;;;48.72;;
76155;SDS011;64906;51.290;7.348;2023-01-28T01:08:29;93.53;;;46.47;;
76155;SDS011;64906;51.290;7.348;2023-01-28T01:10:59;103.57;;;53.47;;
76155;SDS011;64906;51.290;7.348;2023-01-28T01:13:26;98.95;;;48.35;;
76155;SDS011;64906;51.290;7.348;2023-01-28T01:18:32;90.28;;;45.40;;
76155;SDS011;64906;51.290;7.348;2023-01-28T01:20:59;93.32;;;47.13;;
76155;SDS011;64906;51.290;7.348;2023-01-28T01:23:26;92.35;;;45.88;;
76155;SDS011;64906;51.290;7.348;2023-01-28T01:25:52;91.22;;;45.33;;
76155;SDS011;64906;51.290;7.348;2023-01-28T01:28:19;88.55;;;46.50;;
76155;SDS011;64906;51.290;7.348;2023-01-28T01:30:46;86.30;;;46.10;;
76155;SDS011;64906;51.290;7.348;2023-01-28T01:33:13;92.22;;;46.13;;
76155;SDS011;64906;51.290;7.348;2023-01-28T01:35:40;95.43;;;45.67;;
76155;SDS011;64906;51.290;7.348;2023-01-28T01:38:06;87.63;;;45.28;;
76155;SDS011;64906;51.290;7.348;2023-01-28T01:40:33;95.47;;;45.13;;
76155;SDS011;64906;51.290;7.348;2023-01-28T01:42:59;84.93;;;45.13;;
76155;SDS011;64906;51.290;7.348;2023-01-28T01:45:25;92.97;;;45.97;;
76155;SDS011;64906;51.290;7.348;2023-01-28T01:50:36;95.78;;;45.33;;
76155;SDS011;64906;51.290;7.348;2023-01-28T01:53:23;93.90;;;45.28;;
76155;SDS011;64906;51.290;7.348;2023-01-28T01:55:51;86.03;;;44.00;;
76155;SDS011;64906;51.290;7.348;2023-01-28T01:58:23;88.78;;;45.55;;
76155;SDS011;64906;51.290;7.348;2023-01-28T02:00:53;84.15;;;45.65;;
76155;SDS011;64906;51.290;7.348;2023-01-28T02:03:21;88.95;;;44.00;;
76155;SDS011;64906;51.290;7.348;2023-01-28T02:05:53;88.00;;;43.63;;
76155;SDS011;64906;51.290;7.348;2023-01-28T02:08:19;83.55;;;44.15;;
76155;SDS011;64906;51.290;7.348;2023-01-28T02:10:49;91.93;;;48.55;;
76155;SDS011;64906;51.290;7.348;2023-01-28T02:13:19;82.07;;;43.75;;
76155;SDS011;64906;51.290;7.348;2023-01-28T02:15:49;86.15;;;43.70;;
76155;SDS011;64906;51.290;7.348;2023-01-28T02:18:16;83.88;;;43.78;;
76155;SDS011;64906;51.290;7.348;2023-01-28T02:34:34;82.50;;;41.63;;
76155;SDS011;64906;51.290;7.348;2023-01-28T02:37:18;78.95;;;43.40;;
76155;SDS011;64906;51.290;7.348;2023-01-28T02:40:00;76.70;;;41.25;;
76155;SDS011;64906;51.290;7.348;2023-01-28T02:42:34;79.95;;;40.05;;
76155;SDS011;64906;51.290;7.348;2023-01-28T02:45:26;77.47;;;38.97;;
76155;SDS011;64906;51.290;7.348;2023-01-28T02:48:13;76.65;;;40.67;;
76155;SDS011;64906;51.290;7.348;2023-01-28T02:50:54;76.18;;;38.42;;
76155;SDS011;64906;51.290;7.348;2023-01-28T02:53:30;81.00;;;39.83;;
76155;SDS011;64906;51.290;7.348;2023-01-28T02:56:23;76.15;;;38.72;;
76155;SDS011;64906;51.290;7.348;2023-01-28T02:59:22;73.80;;;38.35;;
76155;SDS011;64906;51.290;7.348;2023-01-28T03:01:59;70.10;;;36.55;;
76155;SDS011;64906;51.290;7.348;2023-01-28T03:07:26;75.13;;;37.00;;
76155;SDS011;64906;51.290;7.348;2023-01-28T03:09:54;69.28;;;38.63;;
76155;SDS011;64906;51.290;7.348;2023-01-28T03:12:24;74.05;;;36.88;;
76155;SDS011;64906;51.290;7.348;2023-01-28T03:15:15;73.30;;;36.65;;
76155;SDS011;64906;51.290;7.348;2023-01-28T03:23:56;70.75;;;37.97;;
76155;SDS011;64906;51.290;7.348;2023-01-28T03:27:05;71.78;;;35.88;;
76155;SDS011;64906;51.290;7.348;2023-01-28T03:29:54;72.43;;;35.28;;
76155;SDS011;64906;51.290;7.348;2023-01-28T03:32:42;63.95;;;34.80;;
76155;SDS011;64906;51.290;7.348;2023-01-28T03:35:28;63.50;;;33.58;;
76155;SDS011;64906;51.290;7.348;2023-01-28T03:38:16;68.10;;;34.40;;
76155;SDS011;64906;51.290;7.348;2023-01-28T03:41:01;68.65;;;34.63;;
76155;SDS011;64906;51.290;7.348;2023-01-28T03:45:54;65.60;;;33.78;;
76155;SDS011;64906;51.290;7.348;2023-01-28T03:48:21;65.22;;;32.75;;
76155;SDS011;64906;51.290;7.348;2023-01-28T03:50:49;64.03;;;32.55;;
76155;SDS011;64906;51.290;7.348;2023-01-28T03:53:17;62.25;;;32.00;;
76155;SDS011;64906;51.290;7.348;2023-01-28T03:55:44;64.18;;;32.85;;
76155;SDS011;64906;51.290;7.348;2023-01-28T03:58:12;59.65;;;32.22;;
76155;SDS011;64906;51.290;7.348;2023-01-28T04:00:38;57.55;;;31.10;;
76155;SDS011;64906;51.290;7.348;2023-01-28T04:03:11;62.05;;;31.08;;
76155;SDS011;64906;51.290;7.348;2023-01-28T04:05:46;59.85;;;31.55;;
76155;SDS011;64906;51.290;7.348;2023-01-28T04:08:25;61.08;;;32.25;;
76155;SDS011;64906;51.290;7.348;2023-01-28T04:10:51;63.28;;;31.02;;
76155;SDS011;64906;51.290;7.348;2023-01-28T04:13:17;60.67;;;30.92;;
76155;SDS011;64906;51.290;7.348;2023-01-28T04:15:43;56.95;;;31.30;;
76155;SDS011;64906;51.290;7.348;2023-01-28T04:18:09;54.33;;;29.60;;
76155;SDS011;64906;51.290;7.348;2023-01-28T04:20:36;58.08;;;29.65;;
76155;SDS011;64906;51.290;7.348;2023-01-28T04:23:03;57.08;;;29.92;;
76155;SDS011;64906;51.290;7.348;2023-01-28T04:25:30;60.17;;;29.85;;
76155;SDS011;64906;51.290;7.348;2023-01-28T04:27:56;58.80;;;32.22;;
76155;SDS011;64906;51.290;7.348;2023-01-28T04:30:22;61.05;;;31.00;;
76155;SDS011;64906;51.290;7.348;2023-01-28T04:32:48;52.65;;;29.10;;
76155;SDS011;64906;51.290;7.348;2023-01-28T04:35:15;53.78;;;28.48;;
76155;SDS011;64906;51.290;7.348;2023-01-28T04:37:42;55.00;;;27.63;;
76155;SDS011;64906;51.290;7.348;2023-01-28T04:40:08;54.60;;;30.63;;
76155;SDS011;64906;51.290;7.348;2023-01-28T04:42:35;60.05;;;29.20;;
76155;SDS011;64906;51.290;7.348;2023-01-28T04:45:01;54.40;;;28.33;;
76155;SDS011;64906;51.290;7.348;2023-01-28T04:47:27;50.95;;;27.50;;
76155;SDS011;64906;51.290;7.348;2023-01-28T04:49:52;58.40;;;28.33;;
76155;SDS011;64906;51.290;7.348;2023-01-28T04:52:18;53.13;;;27.00;;
76155;SDS011;64906;51.290;7.348;2023-01-28T04:54:44;56.28;;;27.70;;
76155;SDS011;64906;51.290;7.348;2023-01-28T04:57:09;52.15;;;27.65;;
76155;SDS011;64906;51.290;7.348;2023-01-28T04:59:35;54.85;;;27.63;;
76155;SDS011;64906;51.290;7.348;2023-01-28T05:02:01;53.95;;;27.40;;
76155;SDS011;64906;51.290;7.348;2023-01-28T05:04:27;52.90;;;26.02;;
76155;SDS011;64906;51.290;7.348;2023-01-28T05:06:53;53.63;;;29.20;;
76155;SDS011;64906;51.290;7.348;2023-01-28T05:09:18;52.33;;;26.00;;
76155;SDS011;64906;51.290;7.348;2023-01-28T05:11:44;51.95;;;26.85;;
76155;SDS011;64906;51.290;7.348;2023-01-28T05:14:10;51.22;;;25.05;;
76155;SDS011;64906;51.290;7.348;2023-01-28T05:16:36;48.53;;;25.70;;
76155;SDS011;64906;51.290;7.348;2023-01-28T05:19:02;50.72;;;27.05;;
76155;SDS011;64906;51.290;7.348;2023-01-28T05:21:27;48.85;;;25.48;;
76155;SDS011;64906;51.290;7.348;2023-01-28T05:23:53;51.05;;;25.92;;
76155;SDS011;64906;51.290;7.348;2023-01-28T05:26:19;51.38;;;24.55;;
76155;SDS011;64906;51.290;7.348;2023-01-28T05:28:45;52.58;;;25.08;;
76155;SDS011;64906;51.290;7.348;2023-01-28T05:31:11;51.72;;;25.52;;
76155;SDS011;64906;51.290;7.348;2023-01-28T05:33:36;48.63;;;24.73;;
76155;SDS011;64906;51.290;7.348;2023-01-28T05:36:03;49.53;;;24.65;;
76155;SDS011;64906;51.290;7.348;2023-01-28T05:38:29;48.90;;;23.65;;
76155;SDS011;64906;51.290;7.348;2023-01-28T05:40:55;48.05;;;24.50;;
76155;SDS011;64906;51.290;7.348;2023-01-28T05:43:21;46.35;;;23.80;;
76155;SDS011;64906;51.290;7.348;2023-01-28T05:45:46;43.28;;;23.17;;
76155;SDS011;64906;51.290;7.348;2023-01-28T05:48:12;45.22;;;22.33;;
76155;SDS011;64906;51.290;7.348;2023-01-28T05:50:39;47.30;;;21.30;;
76155;SDS011;64906;51.290;7.348;2023-01-28T05:53:05;45.17;;;22.60;;
76155;SDS011;64906;51.290;7.348;2023-01-28T05:55:31;43.67;;;22.73;;
76155;SDS011;64906;51.290;7.348;2023-01-28T05:57:57;42.17;;;21.95;;
76155;SDS011;64906;51.290;7.348;2023-01-28T06:00:23;43.45;;;22.50;;
76155;SDS011;64906;51.290;7.348;2023-01-28T06:02:52;45.85;;;21.52;;
76155;SDS011;64906;51.290;7.348;2023-01-28T06:05:18;45.65;;;21.70;;
76155;SDS011;64906;51.290;7.348;2023-01-28T06:07:48;38.80;;;21.65;;
76155;SDS011;64906;51.290;7.348;2023-01-28T06:10:15;40.95;;;20.88;;
76155;SDS011;64906;51.290;7.348;2023-01-28T06:12:44;44.00;;;20.85;;
76155;SDS011;64906;51.290;7.348;2023-01-28T06:15:10;43.97;;;20.30;;
76155;SDS011;64906;51.290;7.348;2023-01-28T06:17:36;42.45;;;21.27;;
76155;SDS011;64906;51.290;7.348;2023-01-28T06:20:02;43.53;;;20.38;;
76155;SDS011;64906;51.290;7.348;2023-01-28T06:22:28;42.53;;;20.83;;
76155;SDS011;64906;51.290;7.348;2023-01-28T06:24:54;39.28;;;20.38;;
76155;SDS011;64906;51.290;7.348;2023-01-28T06:27:20;42.97;;;20.52;;
76155;SDS011;64906;51.290;7.348;2023-01-28T06:29:45;41.83;;;19.75;;
76155;SDS011;64906;51.290;7.348;2023-01-28T06:32:11;39.85;;;19.23;;
76155;SDS011;64906;51.290;7.348;2023-01-28T06:34:37;39.78;;;21.60;;
76155;SDS011;64906;51.290;7.348;2023-01-28T06:37:03;47.95;;;21.13;;
76155;SDS011;64906;51.290;7.348;2023-01-28T06:39:29;34.50;;;18.52;;
76155;SDS011;64906;51.290;7.348;2023-01-28T06:41:58;39.60;;;18.63;;
76155;SDS011;64906;51.290;7.348;2023-01-28T06:44:25;39.72;;;19.48;;
76155;SDS011;64906;51.290;7.348;2023-01-28T06:46:50;41.50;;;19.35;;
76155;SDS011;64906;51.290;7.348;2023-01-28T06:49:16;40.00;;;18.90;;
76155;SDS011;64906;51.290;7.348;2023-01-28T06:51:42;36.78;;;19.10;;
76155;SDS011;64906;51.290;7.348;2023-01-28T06:54:08;35.35;;;17.60;;
76155;SDS011;64906;51.290;7.348;2023-01-28T06:56:33;33.22;;;17.63;;
76155;SDS011;64906;51.290;7.348;2023-01-28T06:58:59;36.72;;;18.45;;
76155;SDS011;64906;51.290;7.348;2023-01-28T07:01:25;36.25;;;17.77;;
76155;SDS011;64906;51.290;7.348;2023-01-28T07:03:51;37.55;;;17.73;;
76155;SDS011;64906;51.290;7.348;2023-01-28T07:06:17;39.80;;;17.48;;
76155;SDS011;64906;51.290;7.348;2023-01-28T07:08:42;33.22;;;17.63;;
76155;SDS011;64906;51.290;7.348;2023-01-28T07:11:08;34.70;;;16.80;;
76155;SDS011;64906;51.290;7.348;2023-01-28T07:13:34;35.10;;;17.83;;
76155;SDS011;64906;51.290;7.348;2023-01-28T07:16:00;36.53;;;17.30;;
76155;SDS011;64906;51.290;7.348;2023-01-28T07:18:26;34.40;;;16.92;;
76155;SDS011;64906;51.290;7.348;2023-01-28T07:20:52;32.90;;;17.92;;
76155;SDS011;64906;51.290;7.348;2023-01-28T07:23:17;34.28;;;16.10;;
76155;SDS011;64906;51.290;7.348;2023-01-28T07:25:43;36.45;;;17.15;;
76155;SDS011;64906;51.290;7.348;2023-01-28T07:28:09;36.85;;;18.23;;
76155;SDS011;64906;51.290;7.348;2023-01-28T07:30:36;35.70;;;17.23;;
76155;SDS011;64906;51.290;7.348;2023-01-28T07:33:01;38.67;;;16.90;;
76155;SDS011;64906;51.290;7.348;2023-01-28T07:35:27;34.90;;;18.30;;
76155;SDS011;64906;51.290;7.348;2023-01-28T07:37:58;31.13;;;16.60;;
76155;SDS011;64906;51.290;7.348;2023-01-28T07:40:25;38.00;;;16.55;;
76155;SDS011;64906;51.290;7.348;2023-01-28T07:42:52;40.17;;;16.70;;
76155;SDS011;64906;51.290;7.348;2023-01-28T07:45:19;32.50;;;15.52;;
76155;SDS011;64906;51.290;7.348;2023-01-28T07:48:01;34.08;;;17.55;;
76155;SDS011;64906;51.290;7.348;2023-01-28T07:50:29;33.55;;;16.08;;
76155;SDS011;64906;51.290;7.348;2023-01-28T07:52:57;32.45;;;15.18;;
76155;SDS011;64906;51.290;7.348;2023-01-28T07:55:23;31.50;;;16.08;;
76155;SDS011;64906;51.290;7.348;2023-01-28T07:57:53;29.67;;;14.82;;
76155;SDS011;64906;51.290;7.348;2023-01-28T08:00:21;33.70;;;15.85;;
76155;SDS011;64906;51.290;7.348;2023-01-28T08:02:48;32.75;;;16.00;;
76155;SDS011;64906;51.290;7.348;2023-01-28T08:05:18;35.13;;;15.82;;
76155;SDS011;64906;51.290;7.348;2023-01-28T08:07:46;32.60;;;16.08;;
76155;SDS011;64906;51.290;7.348;2023-01-28T08:10:13;32.33;;;16.25;;
76155;SDS011;64906;51.290;7.348;2023-01-28T08:12:49;37.05;;;15.98;;
76155;SDS011;64906;51.290;7.348;2023-01-28T08:15:23;32.38;;;16.30;;
76155;SDS011;64906;51.290;7.348;2023-01-28T08:17:49;32.15;;;16.23;;
76155;SDS011;64906;51.290;7.348;2023-01-28T08:20:15;39.35;;;17.70;;
76155;SDS011;64906;51.290;7.348;2023-01-28T08:22:41;35.60;;;18.73;;
76155;SDS011;64906;51.290;7.348;2023-01-28T08:25:07;37.22;;;18.20;;
76155;SDS011;64906;51.290;7.348;2023-01-28T08:27:33;33.88;;;17.20;;
76155;SDS011;64906;51.290;7.348;2023-01-28T08:29:59;40.25;;;20.05;;
76155;SDS011;64906;51.290;7.348;2023-01-28T08:32:25;32.42;;;18.08;;
76155;SDS011;64906;51.290;7.348;2023-01-28T08:34:50;40.65;;;19.73;;
76155;SDS011;64906;51.290;7.348;2023-01-28T08:37:16;46.92;;;22.08;;
76155;SDS011;64906;51.290;7.348;2023-01-28T08:39:42;46.65;;;24.05;;
76155;SDS011;64906;51.290;7.348;2023-01-28T08:42:08;41.63;;;22.05;;
76155;SDS011;64906;51.290;7.348;2023-01-28T08:44:34;49.47;;;22.30;;
76155;SDS011;64906;51.290;7.348;2023-01-28T08:46:59;48.97;;;26.27;;
76155;SDS011;64906;51.290;7.348;2023-01-28T08:49:25;52.47;;;27.80;;
76155;SDS011;64906;51.290;7.348;2023-01-28T08:51:51;47.00;;;24.38;;
76155;SDS011;64906;51.290;7.348;2023-01-28T08:54:17;53.65;;;24.40;;
76155;SDS011;64906;51.290;7.348;2023-01-28T08:56:43;55.50;;;27.67;;
76155;SDS011;64906;51.290;7.348;2023-01-28T08:59:12;63.88;;;30.17;;
76155;SDS011;64906;51.290;7.348;2023-01-28T09:01:38;78.90;;;41.25;;
76155;SDS011;64906;51.290;7.348;2023-01-28T09:04:03;92.53;;;46.88;;
76155;SDS011;64906;51.290;7.348;2023-01-28T09:06:29;99.18;;;51.03;;
76155;SDS011;64906;51.290;7.348;2023-01-28T09:08:57;111.10;;;54.72;;
76155;SDS011;64906;51.290;7.348;2023-01-28T09:11:23;111.30;;;58.00;;
76155;SDS011;64906;51.290;7.348;2023-01-28T09:13:49;154.20;;;76.88;;
76155;SDS011;64906;51.290;7.348;2023-01-28T09:16:15;209.15;;;104.38;;
76155;SDS011;64906;51.290;7.348;2023-01-28T09:18:41;700.72;;;344.42;;
76155;SDS011;64906;51.290;7.348;2023-01-28T09:21:06;434.30;;;249.13;;
76155;SDS011;64906;51.290;7.348;2023-01-28T09:23:36;408.20;;;225.63;;
76155;SDS011;64906;51.290;7.348;2023-01-28T09:26:03;401.88;;;223.98;;
76155;SDS011;64906;51.290;7.348;2023-01-28T09:28:30;392.55;;;214.75;;
76155;SDS011;64906;51.290;7.348;2023-01-28T09:31:00;383.02;;;209.68;;
76155;SDS011;64906;51.290;7.348;2023-01-28T09:33:30;375.58;;;206.57;;
76155;SDS011;64906;51.290;7.348;2023-01-28T09:35:58;343.10;;;197.95;;
76155;SDS011;64906;51.290;7.348;2023-01-28T09:38:25;362.88;;;197.27;;
76155;SDS011;64906;51.290;7.348;2023-01-28T09:40:51;361.15;;;195.55;;
76155;SDS011;64906;51.290;7.348;2023-01-28T09:43:20;359.63;;;200.75;;
76155;SDS011;64906;51.290;7.348;2023-01-28T09:46:10;378.10;;;214.90;;
76155;SDS011;64906;51.290;7.348;2023-01-28T09:48:39;356.15;;;194.85;;
76155;SDS011;64906;51.290;7.348;2023-01-28T09:51:09;354.67;;;195.75;;
76155;SDS011;64906;51.290;7.348;2023-01-28T09:53:44;359.33;;;194.98;;
76155;SDS011;64906;51.290;7.348;2023-01-28T09:56:18;384.48;;;215.68;;
76155;SDS011;64906;51.290;7.348;2023-01-28T09:58:50;381.08;;;214.80;;
76155;SDS011;64906;51.290;7.348;2023-01-28T10:03:53;402.67;;;225.02;;
76155;SDS011;64906;51.290;7.348;2023-01-28T10:16:47;410.83;;;236.15;;
76155;SDS011;64906;51.290;7.348;2023-01-28T10:19:35;418.13;;;244.27;;
76155;SDS011;64906;51.290;7.348;2023-01-28T10:22:23;431.00;;;247.32;;
76155;SDS011;64906;51.290;7.348;2023-01-28T10:25:01;435.33;;;254.77;;
76155;SDS011;64906;51.290;7.348;2023-01-28T10:27:33;421.63;;;244.90;;
76155;SDS011;64906;51.290;7.348;2023-01-28T10:30:10;418.45;;;248.40;;
76155;SDS011;64906;51.290;7.348;2023-01-28T10:32:44;427.23;;;248.70;;
76155;SDS011;64906;51.290;7.348;2023-01-28T10:35:15;395.52;;;228.88;;
76155;SDS011;64906;51.290;7.348;2023-01-28T10:37:41;431.10;;;256.92;;
76155;SDS011;64906;51.290;7.348;2023-01-28T10:40:16;457.52;;;285.35;;
76155;SDS011;64906;51.290;7.348;2023-01-28T10:42:43;447.67;;;268.33;;
76155;SDS011;64906;51.290;7.348;2023-01-28T10:45:31;471.27;;;280.25;;
76155;SDS011;64906;51.290;7.348;2023-01-28T10:48:12;472.75;;;281.73;;
76155;SDS011;64906;51.290;7.348;2023-01-28T10:50:52;450.80;;;268.38;;
76155;SDS011;64906;51.290;7.348;2023-01-28T10:53:33;476.20;;;281.73;;
76155;SDS011;64906;51.290;7.348;2023-01-28T10:56:00;470.17;;;296.42;;
76155;SDS011;64906;51.290;7.348;2023-01-28T10:58:28;460.45;;;273.70;;
76155;SDS011;64906;51.290;7.348;2023-01-28T11:01:04;464.95;;;277.75;;
76155;SDS011;64906;51.290;7.348;2023-01-28T11:03:32;447.25;;;260.38;;
76155;SDS011;64906;51.290;7.348;2023-01-28T11:06:00;460.02;;;274.13;;
76155;SDS011;64906;51.290;7.348;2023-01-28T11:08:27;449.15;;;267.13;;
76155;SDS011;64906;51.290;7.348;2023-01-28T11:10:56;457.30;;;274.88;;
76155;SDS011;64906;51.290;7.348;2023-01-28T11:13:23;457.52;;;274.42;;
76155;SDS011;64906;51.290;7.348;2023-01-28T11:18:27;469.33;;;283.02;;
76155;SDS011;64906;51.290;7.348;2023-01-28T11:20:57;466.38;;;295.20;;
76155;SDS011;64906;51.290;7.348;2023-01-28T11:23:28;468.88;;;284.38;;
76155;SDS011;64906;51.290;7.348;2023-01-28T11:26:20;460.00;;;273.90;;
76155;SDS011;64906;51.290;7.348;2023-01-28T11:28:46;471.00;;;285.75;;
76155;SDS011;64906;51.290;7.348;2023-01-28T11:31:13;470.77;;;281.17;;
76155;SDS011;64906;51.290;7.348;2023-01-28T11:36:18;489.02;;;301.60;;
76155;SDS011;64906;51.290;7.348;2023-01-28T11:38:47;472.80;;;290.40;;
76155;SDS011;64906;51.290;7.348;2023-01-28T11:41:14;472.30;;;284.40;;
76155;SDS011;64906;51.290;7.348;2023-01-28T11:43:41;473.30;;;308.00;;
76155;SDS011;64906;51.290;7.348;2023-01-28T11:48:51;480.25;;;291.05;;
76155;SDS011;64906;51.290;7.348;2023-01-28T12:04:54;468.55;;;280.20;;
76155;SDS011;64906;51.290;7.348;2023-01-28T12:07:44;489.75;;;307.20;;
76155;SDS011;64906;51.290;7.348;2023-01-28T12:10:49;371.30;;;214.80;;
76155;SDS011;64906;51.290;7.348;2023-01-28T12:16:23;387.25;;;232.07;;
76155;SDS011;64906;51.290;7.348;2023-01-28T12:22:08;352.13;;;207.10;;
76155;SDS011;64906;51.290;7.348;2023-01-28T12:25:06;305.48;;;159.65;;
76155;SDS011;64906;51.290;7.348;2023-01-28T12:40:40;489.35;;;212.07;;
76155;SDS011;64906;51.290;7.348;2023-01-28T12:49:16;441.42;;;192.65;;
76155;SDS011;64906;51.290;7.348;2023-01-28T12:51:50;411.63;;;186.40;;
76155;SDS011;64906;51.290;7.348;2023-01-28T12:54:44;414.45;;;183.80;;
76155;SDS011;64906;51.290;7.348;2023-01-28T12:57:30;394.90;;;191.75;;
76155;SDS011;64906;51.290;7.348;2023-01-28T13:02:32;395.85;;;180.18;;
76155;SDS011;64906;51.290;7.348;2023-01-28T13:05:13;397.10;;;180.98;;
76155;SDS011;64906;51.290;7.348;2023-01-28T13:08:31;387.48;;;176.77;;
76155;SDS011;64906;51.290;7.348;2023-01-28T13:10:42;405.15;;;188.90;;
76155;SDS011;64906;51.290;7.348;2023-01-28T13:13:29;362.10;;;172.77;;
76155;SDS011;64906;51.290;7.348;2023-01-28T13:15:58;373.65;;;168.43;;
76155;SDS011;64906;51.290;7.348;2023-01-28T13:21:12;347.55;;;163.68;;
76155;SDS011;64906;51.290;7.348;2023-01-28T13:23:46;348.92;;;160.27;;
76155;SDS011;64906;51.290;7.348;2023-01-28T13:28:43;334.42;;;161.80;;
76155;SDS011;64906;51.290;7.348;2023-01-28T13:31:10;326.98;;;157.18;;
76155;SDS011;64906;51.290;7.348;2023-01-28T13:33:42;321.65;;;150.75;;
76155;SDS011;64906;51.290;7.348;2023-01-28T13:36:19;327.33;;;152.45;;
76155;SDS011;64906;51.290;7.348;2023-01-28T13:38:47;317.45;;;152.98;;
76155;SDS011;64906;51.290;7.348;2023-01-28T13:41:24;305.42;;;146.45;;
76155;SDS011;64906;51.290;7.348;2023-01-28T13:44:02;279.70;;;141.60;;
76155;SDS011;64906;51.290;7.348;2023-01-28T13:46:28;291.08;;;150.73;;
76155;SDS011;64906;51.290;7.348;2023-01-28T13:48:56;309.88;;;143.20;;
76155;SDS011;64906;51.290;7.348;2023-01-28T13:51:33;297.02;;;141.95;;
76155;SDS011;64906;51.290;7.348;2023-01-28T13:54:03;296.10;;;139.80;;
76155;SDS011;64906;51.290;7.348;2023-01-28T13:56:38;280.65;;;134.90;;
76155;SDS011;64906;51.290;7.348;2023-01-28T14:02:33;269.75;;;133.07;;
76155;SDS011;64906;51.290;7.348;2023-01-28T14:05:14;274.15;;;129.82;;
76155;SDS011;64906;51.290;7.348;2023-01-28T14:08:35;258.35;;;125.47;;
76155;SDS011;64906;51.290;7.348;2023-01-28T14:19:17;245.27;;;120.32;;
76155;SDS011;64906;51.290;7.348;2023-01-28T14:21:49;250.48;;;118.65;;
76155;SDS011;64906;51.290;7.348;2023-01-28T14:24:15;233.75;;;117.05;;
76155;SDS011;64906;51.290;7.348;2023-01-28T14:27:03;232.02;;;116.75;;
76155;SDS011;64906;51.290;7.348;2023-01-28T14:32:24;235.82;;;110.03;;
76155;SDS011;64906;51.290;7.348;2023-01-28T14:34:53;216.70;;;106.38;;
76155;SDS011;64906;51.290;7.348;2023-01-28T14:37:24;217.43;;;105.40;;
76155;SDS011;64906;51.290;7.348;2023-01-28T14:39:57;213.63;;;103.43;;
76155;SDS011;64906;51.290;7.348;2023-01-28T14:42:30;214.60;;;101.70;;
76155;SDS011;64906;51.290;7.348;2023-01-28T14:45:06;202.23;;;98.25;;
76155;SDS011;64906;51.290;7.348;2023-01-28T14:50:22;193.75;;;97.25;;
76155;SDS011;64906;51.290;7.348;2023-01-28T14:55:44;209.45;;;105.30;;
76155;SDS011;64906;51.290;7.348;2023-01-28T14:58:38;192.80;;;88.40;;
76155;SDS011;64906;51.290;7.348;2023-01-28T15:01:21;184.82;;;91.00;;
76155;SDS011;64906;51.290;7.348;2023-01-28T15:03:48;182.50;;;87.25;;
76155;SDS011;64906;51.290;7.348;2023-01-28T15:06:16;185.77;;;97.07;;
76155;SDS011;64906;51.290;7.348;2023-01-28T15:08:48;189.07;;;88.97;;
76155;SDS011;64906;51.290;7.348;2023-01-28T15:11:16;174.00;;;92.60;;
76155;SDS011;64906;51.290;7.348;2023-01-28T15:13:48;167.50;;;85.88;;
76155;SDS011;64906;51.290;7.348;2023-01-28T15:16:22;167.73;;;81.95;;
76155;SDS011;64906;51.290;7.348;2023-01-28T15:18:53;167.07;;;84.03;;
76155;SDS011;64906;51.290;7.348;2023-01-28T15:21:21;180.75;;;85.63;;
76155;SDS011;64906;51.290;7.348;2023-01-28T15:23:50;177.00;;;90.60;;
76155;SDS011;64906;51.290;7.348;2023-01-28T15:26:22;165.38;;;81.45;;
76155;SDS011;64906;51.290;7.348;2023-01-28T15:28:52;161.02;;;78.80;;
76155;SDS011;64906;51.290;7.348;2023-01-28T15:31:21;169.02;;;78.63;;
76155;SDS011;64906;51.290;7.348;2023-01-28T15:34:03;161.07;;;80.05;;
76155;SDS011;64906;51.290;7.348;2023-01-28T15:36:39;162.02;;;79.90;;
76155;SDS011;64906;51.290;7.348;2023-01-28T15:39:12;160.35;;;77.60;;
76155;SDS011;64906;51.290;7.348;2023-01-28T15:41:40;150.32;;;76.00;;
76155;SDS011;64906;51.290;7.348;2023-01-28T15:47:15;158.30;;;77.50;;
76155;SDS011;64906;51.290;7.348;2023-01-28T15:52:14;143.45;;;73.22;;
76155;SDS011;64906;51.290;7.348;2023-01-28T15:54:41;151.48;;;71.28;;
76155;SDS011;64906;51.290;7.348;2023-01-28T15:57:14;150.68;;;72.18;;
76155;SDS011;64906;51.290;7.348;2023-01-28T15:59:41;141.15;;;71.13;;
76155;SDS011;64906;51.290;7.348;2023-01-28T16:02:17;150.15;;;78.97;;
76155;SDS011;64906;51.290;7.348;2023-01-28T16:04:56;137.45;;;67.60;;
76155;SDS011;64906;51.290;7.348;2023-01-28T16:07:24;136.05;;;68.13;;
76155;SDS011;64906;51.290;7.348;2023-01-28T16:09:52;134.15;;;67.82;;
76155;SDS011;64906;51.290;7.348;2023-01-28T16:12:20;135.05;;;66.30;;
76155;SDS011;64906;51.290;7.348;2023-01-28T16:14:57;126.03;;;63.38;;
76155;SDS011;64906;51.290;7.348;2023-01-28T16:17:27;120.85;;;65.55;;
76155;SDS011;64906;51.290;7.348;2023-01-28T16:20:00;128.43;;;62.53;;
76155;SDS011;64906;51.290;7.348;2023-01-28T16:22:33;117.03;;;59.05;;
76155;SDS011;64906;51.290;7.348;2023-01-28T16:25:23;117.32;;;59.38;;
76155;SDS011;64906;51.290;7.348;2023-01-28T16:27:49;128.77;;;63.55;;
76155;SDS011;64906;51.290;7.348;2023-01-28T16:30:15;121.05;;;58.10;;
76155;SDS011;64906;51.290;7.348;2023-01-28T16:32:42;119.38;;;56.67;;